Time;durP1;ratioP1;P1;durP2;ratioP2;P2;SDS_P1;SDS_P2;PMS_P1;PMS_P2;Temp;Humidity;BMP_temperature;BMP_pressure;BME280_temperature;BME280_humidity;BME280_pressure;Samples;Min_cycle;Max_cycle;Signal;HPM_P1;HPM_P2
2023/12/27 00:01:30;;;;;;;22.02;10.88;;;6.20;95.60;;;;;;5054726;28;20393;-76
2023/12/27 00:03:56;;;;;;;25.95;12.32;;;6.30;95.60;;;;;;5058763;28;20107;-73
2023/12/27 00:06:21;;;;;;;25.05;12.10;;;6.40;95.60;;;;;;5054453;28;20040;-73
2023/12/27 00:08:47;;;;;;;27.65;12.57;;;6.40;95.60;;;;;;5060025;28;20686;-73
2023/12/27 00:11:22;;;;;;;28.67;14.43;;;6.40;95.60;;;;;;5050077;28;20481;-77
2023/12/27 00:13:47;;;;;;;32.35;15.35;;;6.50;95.60;;;;;;5051860;28;20044;-78
2023/12/27 00:16:13;;;;;;;30.48;14.77;;;6.50;95.60;;;;;;5052675;28;20032;-70
2023/12/27 00:18:39;;;;;;;27.70;12.40;;;6.50;95.60;;;;;;5056220;28;20024;-73
2023/12/27 00:21:04;;;;;;;26.88;11.15;;;6.60;95.80;;;;;;5057904;28;20562;-73
2023/12/27 00:23:30;;;;;;;25.75;9.75;;;6.60;95.90;;;;;;5054232;28;20036;-72
2023/12/27 00:25:57;;;;;;;27.52;11.27;;;6.70;95.90;;;;;;5054134;28;20076;-72
2023/12/27 00:28:23;;;;;;;27.83;13.43;;;6.80;95.90;;;;;;5052786;28;20153;-74
2023/12/27 00:30:51;;;;;;;27.77;14.20;;;6.80;95.90;;;;;;5051178;28;20429;-72
2023/12/27 00:33:17;;;;;;;31.92;14.38;;;6.90;95.90;;;;;;5058510;28;20078;-77
2023/12/27 00:35:43;;;;;;;30.92;13.95;;;6.90;95.80;;;;;;5059152;28;20434;-75
2023/12/27 00:38:08;;;;;;;27.45;11.93;;;6.90;95.90;;;;;;5054825;28;20029;-73
2023/12/27 00:40:34;;;;;;;23.80;10.52;;;7.00;95.90;;;;;;5057504;28;20036;-73
2023/12/27 00:42:59;;;;;;;22.35;11.02;;;7.00;95.90;;;;;;5058806;28;20063;-73
2023/12/27 00:45:25;;;;;;;24.65;11.23;;;7.00;95.80;;;;;;5049350;28;20041;-72
2023/12/27 00:47:52;;;;;;;29.77;12.15;;;7.10;95.80;;;;;;5056631;28;20029;-76
2023/12/27 00:50:18;;;;;;;24.25;10.95;;;7.10;95.70;;;;;;5055951;28;20067;-72
2023/12/27 00:52:44;;;;;;;23.08;11.23;;;7.10;95.60;;;;;;5056493;28;20104;-76
2023/12/27 00:55:10;;;;;;;26.08;10.77;;;7.20;95.60;;;;;;5053673;28;20128;-72
2023/12/27 00:57:35;;;;;;;29.73;11.50;;;7.20;95.50;;;;;;5055931;28;20298;-73
2023/12/27 01:00:01;;;;;;;22.33;10.23;;;7.20;95.50;;;;;;5057712;28;20037;-74
2023/12/27 01:02:27;;;;;;;28.80;12.25;;;7.20;95.40;;;;;;5052239;28;20056;-72
2023/12/27 01:04:53;;;;;;;30.70;11.63;;;7.30;95.40;;;;;;5052675;28;20040;-72
2023/12/27 01:07:21;;;;;;;31.00;12.15;;;7.30;95.40;;;;;;5056021;28;20041;-73
2023/12/27 01:09:47;;;;;;;24.45;10.93;;;7.30;95.20;;;;;;5054201;28;20064;-73
2023/12/27 01:12:12;;;;;;;24.60;10.15;;;7.40;95.30;;;;;;5055139;28;20106;-76
2023/12/27 01:14:38;;;;;;;23.70;8.30;;;7.40;95.20;;;;;;5055918;28;20033;-72
2023/12/27 01:17:04;;;;;;;21.75;8.02;;;7.40;95.20;;;;;;5056430;28;20516;-77
2023/12/27 01:19:29;;;;;;;20.52;7.40;;;7.50;95.20;;;;;;5060429;28;20765;-75
2023/12/27 01:21:55;;;;;;;20.88;7.13;;;7.50;95.10;;;;;;5052572;28;20120;-72
2023/12/27 01:24:21;;;;;;;20.63;6.97;;;7.50;95.20;;;;;;5060424;28;20028;-73
2023/12/27 01:26:46;;;;;;;21.10;7.30;;;7.60;95.00;;;;;;5052526;28;20402;-73
2023/12/27 01:29:12;;;;;;;23.17;8.93;;;7.60;95.00;;;;;;5056099;28;20032;-73
2023/12/27 01:31:38;;;;;;;19.17;7.78;;;7.60;94.90;;;;;;5051833;28;20284;-74
2023/12/27 01:34:03;;;;;;;25.77;8.90;;;7.60;94.80;;;;;;5057169;28;20047;-74
2023/12/27 01:36:29;;;;;;;21.73;6.90;;;7.70;94.60;;;;;;5054553;28;20374;-74
2023/12/27 01:38:54;;;;;;;25.02;7.63;;;7.70;94.60;;;;;;5053001;28;20043;-72
2023/12/27 01:41:20;;;;;;;23.65;7.35;;;7.70;94.40;;;;;;5053271;28;20037;-73
2023/12/27 01:43:46;;;;;;;22.75;7.60;;;7.80;94.40;;;;;;5053431;28;20028;-73
2023/12/27 01:46:12;;;;;;;20.60;7.13;;;7.80;94.40;;;;;;5057296;28;20209;-76
2023/12/27 01:48:40;;;;;;;20.13;6.70;;;7.80;94.30;;;;;;5059281;28;20036;-71
2023/12/27 01:51:07;;;;;;;25.05;7.85;;;7.80;94.20;;;;;;5054537;28;20044;-73
2023/12/27 01:53:33;;;;;;;24.60;8.55;;;7.90;94.10;;;;;;5052420;28;20086;-74
2023/12/27 01:55:59;;;;;;;22.75;8.45;;;7.90;94.10;;;;;;5055483;28;20288;-72
2023/12/27 01:58:26;;;;;;;26.35;8.10;;;7.90;94.00;;;;;;5057517;28;20021;-75
2023/12/27 02:00:52;;;;;;;21.77;8.38;;;7.90;93.80;;;;;;5051945;28;20037;-72
2023/12/27 02:03:18;;;;;;;21.77;8.93;;;7.90;93.80;;;;;;5047103;28;20029;-75
2023/12/27 02:05:45;;;;;;;26.58;8.95;;;7.90;93.70;;;;;;5036426;28;20048;-74
2023/12/27 02:08:12;;;;;;;20.08;9.02;;;7.90;93.70;;;;;;5057121;28;20036;-73
2023/12/27 02:10:38;;;;;;;22.83;9.55;;;7.90;93.60;;;;;;5051442;28;20820;-76
2023/12/27 02:13:04;;;;;;;24.45;9.77;;;8.00;93.60;;;;;;5053273;28;20060;-73
2023/12/27 02:15:30;;;;;;;23.33;9.55;;;7.90;93.70;;;;;;5054612;28;20052;-74
2023/12/27 02:17:56;;;;;;;21.20;8.40;;;8.00;93.80;;;;;;5052485;28;20083;-74
2023/12/27 02:20:23;;;;;;;20.25;8.57;;;8.00;93.90;;;;;;5036589;28;20024;-75
2023/12/27 02:22:50;;;;;;;26.40;8.90;;;8.00;94.10;;;;;;5036544;28;20543;-72
2023/12/27 02:25:16;;;;;;;24.17;8.75;;;8.00;94.40;;;;;;5051759;28;20505;-76
2023/12/27 02:27:42;;;;;;;19.35;8.20;;;8.00;94.60;;;;;;5050214;28;20485;-73
2023/12/27 02:30:15;;;;;;;18.65;8.07;;;8.10;95.00;;;;;;5050404;28;20033;-73
2023/12/27 02:32:41;;;;;;;21.42;9.38;;;8.10;95.20;;;;;;5057774;28;20025;-77
2023/12/27 02:35:07;;;;;;;25.75;10.43;;;8.10;95.60;;;;;;5059815;28;20042;-72
2023/12/27 02:37:32;;;;;;;31.50;10.48;;;8.00;95.90;;;;;;5060175;28;20466;-73
2023/12/27 02:39:59;;;;;;;28.35;10.80;;;8.10;96.10;;;;;;5055541;28;20029;-74
2023/12/27 02:42:24;;;;;;;31.20;11.65;;;8.00;96.20;;;;;;5053160;28;20087;-73
2023/12/27 02:44:50;;;;;;;24.50;10.63;;;8.10;96.40;;;;;;5059651;28;20490;-72
2023/12/27 02:47:15;;;;;;;24.05;11.05;;;8.10;96.60;;;;;;5039306;28;20333;-72
2023/12/27 02:49:41;;;;;;;23.50;12.30;;;8.10;96.70;;;;;;5061383;28;20025;-73
2023/12/27 02:52:07;;;;;;;25.67;13.32;;;8.10;96.90;;;;;;5061224;28;20410;-75
2023/12/27 02:54:33;;;;;;;27.92;13.18;;;8.10;97.10;;;;;;5055358;28;20032;-71
2023/12/27 02:56:58;;;;;;;26.15;13.27;;;8.20;97.50;;;;;;5059831;28;20443;-72
2023/12/27 02:59:24;;;;;;;27.42;14.48;;;8.20;97.70;;;;;;5061846;28;20112;-76
2023/12/27 03:01:50;;;;;;;29.38;15.07;;;8.30;98.00;;;;;;5058248;28;20499;-73
2023/12/27 03:04:16;;;;;;;31.67;14.90;;;8.30;98.10;;;;;;5063471;28;20020;-73
2023/12/27 03:06:42;;;;;;;26.83;15.00;;;8.30;98.30;;;;;;5063073;28;20426;-72
2023/12/27 03:09:08;;;;;;;26.42;15.48;;;8.30;98.40;;;;;;5058340;28;20522;-73
2023/12/27 03:11:33;;;;;;;24.80;15.25;;;8.40;98.50;;;;;;5035043;28;20116;-74
2023/12/27 03:13:59;;;;;;;29.15;15.57;;;8.40;98.60;;;;;;5061627;28;20046;-73
2023/12/27 03:16:26;;;;;;;30.92;16.52;;;8.40;98.70;;;;;;5052818;28;20045;-72
2023/12/27 03:18:51;;;;;;;24.63;16.25;;;8.40;98.70;;;;;;5043263;28;20377;-73
2023/12/27 03:21:17;;;;;;;22.58;14.73;;;8.40;98.80;;;;;;5057805;28;20036;-72
2023/12/27 03:23:42;;;;;;;21.50;14.23;;;8.40;98.90;;;;;;5056997;28;20025;-74
2023/12/27 03:26:08;;;;;;;24.90;16.10;;;8.50;99.00;;;;;;5058005;28;20055;-73
2023/12/27 03:28:34;;;;;;;21.77;15.07;;;8.50;99.00;;;;;;5058475;28;20024;-75
2023/12/27 03:30:59;;;;;;;23.65;15.93;;;8.60;99.10;;;;;;5055086;28;20068;-74
2023/12/27 03:33:25;;;;;;;23.48;15.15;;;8.60;99.10;;;;;;5055822;28;20040;-72
2023/12/27 03:35:51;;;;;;;21.65;16.63;;;8.60;99.20;;;;;;5060305;28;20048;-73
2023/12/27 03:38:17;;;;;;;24.40;18.00;;;8.60;99.30;;;;;;5060581;28;20032;-72
2023/12/27 03:40:43;;;;;;;25.42;17.58;;;8.70;99.30;;;;;;5057920;28;20370;-72
2023/12/27 03:43:09;;;;;;;21.92;16.15;;;8.70;99.30;;;;;;5066834;28;20534;-76
2023/12/27 03:45:36;;;;;;;26.02;17.98;;;8.70;99.40;;;;;;5068162;28;20109;-73
2023/12/27 03:48:02;;;;;;;23.92;17.38;;;8.70;99.40;;;;;;5074991;28;20081;-74
2023/12/27 03:50:28;;;;;;;23.65;17.08;;;8.80;99.50;;;;;;5055097;28;20032;-77
2023/12/27 03:52:53;;;;;;;22.85;16.70;;;8.80;99.50;;;;;;5059263;28;20115;-73
2023/12/27 03:55:19;;;;;;;22.35;16.50;;;8.80;99.60;;;;;;5052519;28;20461;-73
2023/12/27 03:57:45;;;;;;;25.75;17.73;;;8.90;99.70;;;;;;5058529;28;20031;-76
2023/12/27 04:00:11;;;;;;;21.83;15.35;;;8.90;99.80;;;;;;5056040;28;20782;-74
2023/12/27 04:02:37;;;;;;;21.35;15.15;;;9.00;99.90;;;;;;5057471;28;20028;-74
2023/12/27 04:05:03;;;;;;;21.98;16.02;;;9.00;99.90;;;;;;5061244;28;20567;-75
2023/12/27 04:07:29;;;;;;;22.40;17.45;;;9.10;99.90;;;;;;5061934;28;20098;-72
2023/12/27 04:09:55;;;;;;;21.63;16.40;;;9.10;99.90;;;;;;5049206;28;20045;-75
2023/12/27 04:12:21;;;;;;;23.52;16.15;;;9.10;99.90;;;;;;5066305;28;20057;-74
2023/12/27 04:14:48;;;;;;;22.20;16.23;;;9.20;99.90;;;;;;5062708;28;20127;-74
2023/12/27 04:17:13;;;;;;;25.58;17.38;;;9.20;99.90;;;;;;5066672;28;20174;-72
2023/12/27 04:19:39;;;;;;;21.05;15.90;;;9.20;99.90;;;;;;5060855;28;20051;-74
2023/12/27 04:22:05;;;;;;;19.77;15.50;;;9.30;99.90;;;;;;5063229;28;20032;-77
2023/12/27 04:24:31;;;;;;;22.27;15.80;;;9.30;99.90;;;;;;5067622;28;20032;-74
2023/12/27 04:26:56;;;;;;;20.95;15.25;;;9.40;99.90;;;;;;5058912;28;20450;-75
2023/12/27 04:29:22;;;;;;;20.25;14.65;;;9.30;99.90;;;;;;5070793;28;20140;-78
2023/12/27 04:31:47;;;;;;;19.35;14.55;;;9.30;99.90;;;;;;5063362;28;20436;-74
2023/12/27 04:34:13;;;;;;;20.77;14.50;;;9.30;99.90;;;;;;5056075;28;20063;-73
2023/12/27 04:36:38;;;;;;;19.73;14.75;;;9.40;99.90;;;;;;5059128;28;20131;-72
2023/12/27 04:39:06;;;;;;;17.98;13.05;;;9.40;99.90;;;;;;5059168;28;20488;-72
2023/12/27 04:41:32;;;;;;;18.17;12.82;;;9.40;99.90;;;;;;5051012;28;20655;-75
2023/12/27 04:43:57;;;;;;;19.80;13.63;;;9.40;99.90;;;;;;5059108;28;20059;-74
2023/12/27 04:46:23;;;;;;;19.63;13.60;;;9.50;99.90;;;;;;5054034;28;20138;-73
2023/12/27 04:48:49;;;;;;;19.30;12.98;;;9.50;99.90;;;;;;5038729;28;20029;-75
2023/12/27 04:51:14;;;;;;;16.83;12.23;;;9.50;99.90;;;;;;5050996;28;20397;-74
2023/12/27 04:53:40;;;;;;;19.42;13.05;;;9.50;99.90;;;;;;5052497;28;20039;-76
2023/12/27 04:56:05;;;;;;;20.45;13.50;;;9.50;99.90;;;;;;5059753;28;20115;-73
2023/12/27 04:58:35;;;;;;;20.25;14.90;;;9.60;99.90;;;;;;5058189;28;20024;-75
2023/12/27 05:01:03;;;;;;;22.58;14.65;;;9.50;99.90;;;;;;5055609;28;20052;-79
2023/12/27 05:03:29;;;;;;;19.58;14.23;;;9.60;99.90;;;;;;5051138;28;20050;-76
2023/12/27 05:05:54;;;;;;;19.90;14.57;;;9.60;99.90;;;;;;5036368;28;21216;-72
2023/12/27 05:08:20;;;;;;;21.98;16.08;;;9.60;99.90;;;;;;5055090;28;20032;-74
2023/12/27 05:10:46;;;;;;;23.25;16.75;;;9.60;99.90;;;;;;5048997;28;20473;-75
2023/12/27 05:13:12;;;;;;;22.27;16.52;;;9.60;99.90;;;;;;5057028;28;20021;-72
2023/12/27 05:15:37;;;;;;;24.75;17.30;;;9.60;99.90;;;;;;5056753;28;20052;-73
2023/12/27 05:18:03;;;;;;;28.50;18.58;;;9.60;99.90;;;;;;5057755;28;20324;-72
2023/12/27 05:20:29;;;;;;;26.85;18.15;;;9.60;99.90;;;;;;5052784;28;20474;-72
2023/12/27 05:22:54;;;;;;;30.42;19.88;;;9.60;99.90;;;;;;5052207;28;20029;-73
2023/12/27 05:25:20;;;;;;;31.00;20.70;;;9.60;99.90;;;;;;5055220;28;20036;-72
2023/12/27 05:27:45;;;;;;;33.20;21.75;;;9.60;99.90;;;;;;5053513;28;20086;-74
2023/12/27 05:30:11;;;;;;;37.65;24.23;;;9.60;99.90;;;;;;5036652;28;20429;-74
2023/12/27 05:32:37;;;;;;;36.33;24.48;;;9.60;99.90;;;;;;5055739;28;20025;-73
2023/12/27 05:35:03;;;;;;;34.00;24.15;;;9.60;99.90;;;;;;5054616;28;20468;-74
2023/12/27 05:37:28;;;;;;;36.25;25.20;;;9.60;99.90;;;;;;5047901;28;20048;-74
2023/12/27 05:39:54;;;;;;;39.88;25.73;;;9.60;99.90;;;;;;5057673;28;20074;-74
2023/12/27 05:42:20;;;;;;;41.47;25.80;;;9.60;99.90;;;;;;5058799;28;20520;-74
2023/12/27 05:44:45;;;;;;;37.58;25.88;;;9.70;99.90;;;;;;5057073;28;20071;-74
2023/12/27 05:47:11;;;;;;;41.75;27.08;;;9.70;99.90;;;;;;5055119;28;20389;-75
2023/12/27 05:49:36;;;;;;;43.20;27.02;;;9.70;99.90;;;;;;5058477;28;20031;-72
2023/12/27 05:52:03;;;;;;;43.70;27.63;;;9.70;99.90;;;;;;5054027;28;20072;-73
2023/12/27 05:54:29;;;;;;;49.63;26.15;;;9.80;99.90;;;;;;5055268;28;20031;-74
2023/12/27 05:56:54;;;;;;;41.35;27.05;;;9.80;99.90;;;;;;5048619;28;20327;-73
2023/12/27 05:59:20;;;;;;;41.67;27.67;;;9.80;99.90;;;;;;5054020;28;20021;-74
2023/12/27 06:01:55;;;;;;;40.13;27.65;;;9.80;99.90;;;;;;5053874;28;20115;-73
2023/12/27 06:04:22;;;;;;;47.85;28.70;;;9.80;99.90;;;;;;5052520;28;20028;-72
2023/12/27 06:06:51;;;;;;;39.67;26.08;;;9.90;99.90;;;;;;5048879;28;20805;-73
2023/12/27 06:09:17;;;;;;;43.80;27.95;;;9.80;99.90;;;;;;5051568;28;20112;-75
2023/12/27 06:11:42;;;;;;;41.50;27.38;;;9.80;99.90;;;;;;5048563;28;20124;-73
2023/12/27 06:14:08;;;;;;;46.38;27.35;;;9.90;99.90;;;;;;5055034;28;20453;-72
2023/12/27 06:16:34;;;;;;;40.08;25.95;;;9.80;99.90;;;;;;5054347;28;20110;-74
2023/12/27 06:19:00;;;;;;;47.47;27.30;;;9.80;99.90;;;;;;5057664;28;20051;-75
2023/12/27 06:21:26;;;;;;;44.15;26.50;;;9.90;99.90;;;;;;5051917;28;20098;-76
2023/12/27 06:23:52;;;;;;;42.65;25.77;;;9.90;99.90;;;;;;5032836;28;20732;-75
2023/12/27 06:26:18;;;;;;;39.25;26.15;;;9.90;99.90;;;;;;5050624;28;20082;-73
2023/12/27 06:28:45;;;;;;;40.35;26.38;;;9.80;99.90;;;;;;5048886;28;20031;-75
2023/12/27 06:31:11;;;;;;;42.10;26.48;;;9.80;99.90;;;;;;5049364;28;20488;-71
2023/12/27 06:33:36;;;;;;;41.47;25.58;;;9.80;99.90;;;;;;5049699;28;20021;-71
2023/12/27 06:36:05;;;;;;;34.97;25.00;;;9.80;99.90;;;;;;5054023;28;20545;-73
2023/12/27 06:38:30;;;;;;;37.42;26.08;;;9.80;99.90;;;;;;5050655;28;20024;-71
2023/12/27 06:40:56;;;;;;;37.13;24.88;;;9.80;99.90;;;;;;5047386;28;20443;-76
2023/12/27 06:43:22;;;;;;;36.60;24.27;;;9.80;99.90;;;;;;5052455;28;20029;-74
2023/12/27 06:45:49;;;;;;;35.80;24.05;;;9.80;99.90;;;;;;5033816;28;20048;-71
2023/12/27 06:48:15;;;;;;;35.53;24.83;;;9.80;99.80;;;;;;5053396;28;20020;-75
2023/12/27 06:50:42;;;;;;;34.53;23.60;;;9.80;99.80;;;;;;5050997;28;20033;-73
2023/12/27 06:53:07;;;;;;;34.35;21.92;;;9.80;99.70;;;;;;5049137;28;20039;-86
2023/12/27 06:55:33;;;;;;;32.45;21.73;;;9.80;99.70;;;;;;5049927;28;20033;-73
2023/12/27 06:57:59;;;;;;;32.17;21.65;;;9.80;99.60;;;;;;5056253;28;20033;-75
2023/12/27 07:00:26;;;;;;;29.50;21.70;;;9.80;99.50;;;;;;5048818;28;20090;-74
2023/12/27 07:02:51;;;;;;;29.15;21.50;;;9.80;99.40;;;;;;5049588;28;20060;-73
2023/12/27 07:05:17;;;;;;;28.10;20.10;;;9.80;99.30;;;;;;5051187;28;20554;-76
2023/12/27 07:07:43;;;;;;;29.80;19.10;;;9.80;99.30;;;;;;5052927;28;20025;-75
2023/12/27 07:10:09;;;;;;;25.90;18.90;;;9.80;99.30;;;;;;5050661;28;20048;-75
2023/12/27 07:12:35;;;;;;;28.98;19.80;;;9.80;99.20;;;;;;5050559;28;20021;-73
2023/12/27 07:15:01;;;;;;;26.45;18.65;;;9.80;99.20;;;;;;5054239;28;20083;-77
2023/12/27 07:17:26;;;;;;;26.98;17.65;;;9.80;99.10;;;;;;5050174;28;20103;-73
2023/12/27 07:19:52;;;;;;;30.75;18.35;;;9.80;99.10;;;;;;5049633;28;20029;-74
2023/12/27 07:22:18;;;;;;;27.63;18.27;;;9.80;99.00;;;;;;5055194;28;21052;-75
2023/12/27 07:24:44;;;;;;;28.90;17.77;;;9.80;99.00;;;;;;5040978;28;20116;-74
2023/12/27 07:27:09;;;;;;;26.13;17.77;;;9.80;98.90;;;;;;5049047;28;20128;-74
2023/12/27 07:29:38;;;;;;;25.65;16.30;;;9.80;98.80;;;;;;5056526;28;20227;-73
2023/12/27 07:32:05;;;;;;;27.02;16.75;;;9.80;98.80;;;;;;5055017;28;20033;-72
2023/12/27 07:34:33;;;;;;;25.42;17.08;;;9.90;98.70;;;;;;5060872;28;20342;-76
2023/12/27 07:36:58;;;;;;;21.25;15.73;;;9.90;98.60;;;;;;5053913;28;20096;-76
2023/12/27 07:39:24;;;;;;;25.73;16.13;;;9.90;98.60;;;;;;5060482;28;20384;-73
2023/12/27 07:41:50;;;;;;;22.23;15.73;;;9.90;98.60;;;;;;5049746;28;20394;-75
2023/12/27 07:44:16;;;;;;;21.92;16.05;;;9.90;98.60;;;;;;5049358;28;20074;-73
2023/12/27 07:46:43;;;;;;;26.58;15.23;;;9.90;98.60;;;;;;5034267;28;20397;-73
2023/12/27 07:49:08;;;;;;;21.48;14.65;;;9.90;98.50;;;;;;5057393;28;20025;-75
2023/12/27 07:51:34;;;;;;;22.95;15.80;;;9.90;98.50;;;;;;5055831;28;20417;-73
2023/12/27 07:54:00;;;;;;;19.80;14.70;;;9.90;98.50;;;;;;5060948;28;20038;-75
2023/12/27 07:56:26;;;;;;;21.10;14.25;;;9.90;98.40;;;;;;5056658;28;20049;-75
2023/12/27 07:58:53;;;;;;;23.30;14.65;;;9.90;98.40;;;;;;5053136;28;20012;-73
2023/12/27 08:01:19;;;;;;;21.60;15.75;;;9.90;98.30;;;;;;5055766;28;20087;-77
2023/12/27 08:03:45;;;;;;;24.63;15.15;;;9.90;98.30;;;;;;5040885;28;20025;-73
2023/12/27 08:06:11;;;;;;;25.30;16.17;;;9.90;98.40;;;;;;5054615;28;20054;-74
2023/12/27 08:08:36;;;;;;;24.25;15.75;;;9.90;98.30;;;;;;5051500;28;20107;-74
2023/12/27 08:11:05;;;;;;;23.38;15.00;;;9.90;98.20;;;;;;5055695;28;20098;-76
2023/12/27 08:13:37;;;;;;;24.40;14.88;;;9.90;98.20;;;;;;5035267;28;20424;-74
2023/12/27 08:16:03;;;;;;;24.05;14.45;;;9.90;98.10;;;;;;5049768;28;20045;-76
2023/12/27 08:18:29;;;;;;;24.42;15.52;;;10.00;98.10;;;;;;5054582;28;20106;-73
2023/12/27 08:20:55;;;;;;;22.33;14.52;;;9.90;98.10;;;;;;5055667;28;20484;-74
2023/12/27 08:23:21;;;;;;;23.13;15.30;;;9.90;98.10;;;;;;5053331;28;20036;-72
2023/12/27 08:25:47;;;;;;;18.80;14.68;;;10.00;97.90;;;;;;5060553;28;20040;-73
2023/12/27 08:28:14;;;;;;;21.77;14.35;;;9.90;97.90;;;;;;5055227;28;20032;-72
2023/12/27 08:30:44;;;;;;;24.15;14.57;;;10.00;97.90;;;;;;5054024;28;20492;-72
2023/12/27 08:33:10;;;;;;;24.40;14.40;;;10.00;97.80;;;;;;5059766;28;20024;-77
2023/12/27 08:35:36;;;;;;;22.65;15.00;;;10.00;97.70;;;;;;5053675;28;20614;-73
2023/12/27 08:38:05;;;;;;;22.40;15.05;;;10.00;97.70;;;;;;5061814;28;20020;-73
2023/12/27 08:40:30;;;;;;;23.05;15.00;;;10.00;97.70;;;;;;5037046;28;20094;-71
2023/12/27 08:42:57;;;;;;;24.70;16.75;;;10.00;97.70;;;;;;5056101;28;20032;-70
2023/12/27 08:45:23;;;;;;;24.92;15.43;;;10.00;97.60;;;;;;5040259;28;20447;-73
2023/12/27 08:47:49;;;;;;;25.98;16.20;;;10.10;97.60;;;;;;5065825;28;20084;-72
2023/12/27 08:50:15;;;;;;;21.52;15.82;;;10.00;97.50;;;;;;5070606;28;20035;-73
2023/12/27 08:52:40;;;;;;;25.98;15.10;;;10.10;97.50;;;;;;5052896;28;20500;-70
2023/12/27 08:55:08;;;;;;;21.33;14.25;;;10.10;97.40;;;;;;5056464;28;20361;-72
2023/12/27 08:57:34;;;;;;;22.05;14.43;;;10.10;97.40;;;;;;5058783;28;20123;-70
2023/12/27 09:00:00;;;;;;;19.67;14.55;;;10.10;97.30;;;;;;5053619;28;20044;-70
2023/12/27 09:02:27;;;;;;;21.77;14.70;;;10.10;97.20;;;;;;5053718;28;20517;-69
2023/12/27 09:04:52;;;;;;;20.88;14.38;;;10.10;97.20;;;;;;5052117;28;20029;-71
2023/12/27 09:07:18;;;;;;;22.33;14.95;;;10.10;97.20;;;;;;5057619;28;20046;-73
2023/12/27 09:09:44;;;;;;;22.10;14.60;;;10.10;97.10;;;;;;5054080;28;20048;-72
2023/12/27 09:12:09;;;;;;;19.38;14.27;;;10.10;97.10;;;;;;5052595;28;20032;-71
2023/12/27 09:14:38;;;;;;;21.45;13.68;;;10.10;97.00;;;;;;5049203;28;20546;-69
2023/12/27 09:17:04;;;;;;;20.55;14.32;;;10.10;97.00;;;;;;5046578;28;20413;-72
2023/12/27 09:19:29;;;;;;;19.23;14.10;;;10.10;97.00;;;;;;5053197;28;20033;-70
2023/12/27 09:21:55;;;;;;;22.27;13.90;;;10.20;96.90;;;;;;5059584;28;20397;-69
2023/12/27 09:24:21;;;;;;;23.23;14.85;;;10.10;96.80;;;;;;5057098;28;20036;-73
2023/12/27 09:26:49;;;;;;;23.95;14.98;;;10.20;96.90;;;;;;5054849;28;20036;-70
2023/12/27 09:29:16;;;;;;;20.17;14.45;;;10.20;96.70;;;;;;5054581;28;20028;-70
2023/12/27 09:31:43;;;;;;;23.10;15.15;;;10.20;96.70;;;;;;5054689;28;20190;-70
2023/12/27 09:34:09;;;;;;;20.27;13.88;;;10.20;96.70;;;;;;5048910;28;20029;-70
2023/12/27 09:36:34;;;;;;;22.52;14.75;;;10.30;96.60;;;;;;5039290;28;20409;-70
2023/12/27 09:39:00;;;;;;;19.75;14.48;;;10.20;96.60;;;;;;5056362;28;20017;-70
2023/12/27 09:41:26;;;;;;;21.75;15.20;;;10.30;96.50;;;;;;5052506;28;20071;-70
2023/12/27 09:43:55;;;;;;;22.98;15.07;;;10.20;96.40;;;;;;5055055;28;20448;-73
2023/12/27 09:46:23;;;;;;;24.83;15.30;;;10.30;96.40;;;;;;5045595;28;20099;-71
2023/12/27 09:48:50;;;;;;;19.55;15.00;;;10.40;96.30;;;;;;5053644;28;20116;-70
2023/12/27 09:51:23;;;;;;;18.50;13.90;;;10.30;96.20;;;;;;5039160;28;20400;-71
2023/12/27 09:53:52;;;;;;;20.88;15.10;;;10.40;96.30;;;;;;5053530;28;20031;-72
2023/12/27 09:56:30;;;;;;;20.42;14.63;;;10.40;96.20;;;;;;5047206;28;20354;-70
2023/12/27 09:59:01;;;;;;;19.38;13.88;;;10.40;96.20;;;;;;5052701;28;20341;-70
2023/12/27 10:01:30;;;;;;;21.65;14.32;;;10.40;96.00;;;;;;5044230;28;20057;-71
2023/12/27 10:04:07;;;;;;;18.40;13.63;;;10.40;96.00;;;;;;5049377;28;20040;-71
2023/12/27 10:06:38;;;;;;;22.40;13.52;;;10.50;95.90;;;;;;5051377;28;20102;-71
2023/12/27 10:09:05;;;;;;;20.00;13.18;;;10.40;95.80;;;;;;5055496;28;20027;-73
2023/12/27 10:11:33;;;;;;;17.45;11.43;;;10.50;95.90;;;;;;5051084;28;20237;-70
2023/12/27 10:13:58;;;;;;;20.60;12.35;;;10.50;95.70;;;;;;5049017;28;20029;-72
2023/12/27 10:16:26;;;;;;;20.48;12.18;;;10.50;95.60;;;;;;5051547;28;20044;-72
2023/12/27 10:18:52;;;;;;;20.27;11.43;;;10.50;95.50;;;;;;5054536;28;20249;-71
2023/12/27 10:21:18;;;;;;;20.83;15.32;;;10.50;95.40;;;;;;5051772;28;20033;-72
2023/12/27 10:23:44;;;;;;;16.65;11.80;;;10.50;95.40;;;;;;5048013;28;20013;-71
2023/12/27 10:26:10;;;;;;;22.20;14.63;;;10.50;95.30;;;;;;5052791;28;20049;-71
2023/12/27 10:28:36;;;;;;;17.90;11.38;;;10.60;95.20;;;;;;5050667;28;21184;-71
2023/12/27 10:31:05;;;;;;;21.15;15.10;;;10.60;94.90;;;;;;5049755;28;20433;-72
2023/12/27 10:33:44;;;;;;;18.90;13.68;;;10.60;95.00;;;;;;5058645;28;20151;-70
2023/12/27 10:36:10;;;;;;;25.73;15.10;;;10.60;94.80;;;;;;5050892;28;20049;-72
2023/12/27 10:38:37;;;;;;;40.88;24.05;;;10.60;94.70;;;;;;5054442;28;20040;-73
2023/12/27 10:41:06;;;;;;;16.30;10.32;;;10.70;94.70;;;;;;5051967;28;20604;-72
2023/12/27 10:43:33;;;;;;;17.05;11.13;;;10.60;94.60;;;;;;5033491;28;20404;-76
2023/12/27 10:45:59;;;;;;;15.68;10.05;;;10.60;94.60;;;;;;5035273;28;20511;-75
2023/12/27 10:48:28;;;;;;;17.88;10.63;;;10.60;94.50;;;;;;5057933;28;20021;-74
2023/12/27 10:50:54;;;;;;;16.95;10.07;;;10.60;94.30;;;;;;5048155;28;20052;-73
2023/12/27 10:53:20;;;;;;;14.52;10.35;;;10.60;94.20;;;;;;5057377;28;20066;-77
2023/12/27 10:55:48;;;;;;;22.48;11.88;;;10.60;94.30;;;;;;5039731;28;20431;-73
2023/12/27 10:58:24;;;;;;;16.65;10.38;;;10.60;94.40;;;;;;5036648;28;20487;-74
2023/12/27 11:00:51;;;;;;;17.58;11.00;;;10.60;94.20;;;;;;5052905;28;20033;-74
2023/12/27 11:03:17;;;;;;;21.83;10.10;;;10.60;94.10;;;;;;5042091;28;20120;-76
2023/12/27 11:05:45;;;;;;;20.17;10.23;;;10.60;93.90;;;;;;5056238;28;20646;-72
2023/12/27 11:08:13;;;;;;;17.38;10.75;;;10.60;94.20;;;;;;5056128;28;20024;-74
2023/12/27 11:10:40;;;;;;;25.05;16.40;;;10.60;94.00;;;;;;5051396;28;20035;-74
2023/12/27 11:13:12;;;;;;;18.17;11.30;;;10.60;93.90;;;;;;5058736;28;20033;-75
2023/12/27 11:15:44;;;;;;;17.30;11.60;;;10.60;93.80;;;;;;5054225;28;20040;-73
2023/12/27 11:18:11;;;;;;;20.25;12.70;;;10.60;93.90;;;;;;5031903;28;20649;-73
2023/12/27 11:20:39;;;;;;;16.77;11.00;;;10.60;93.70;;;;;;5061244;28;20029;-77
2023/12/27 11:23:05;;;;;;;17.95;12.68;;;10.70;93.70;;;;;;5061900;28;20103;-74
2023/12/27 11:25:31;;;;;;;15.88;10.82;;;10.70;93.60;;;;;;5055800;28;20439;-75
2023/12/27 11:27:58;;;;;;;15.13;9.27;;;10.70;93.50;;;;;;5040488;28;20029;-73
2023/12/27 11:30:26;;;;;;;15.73;10.07;;;10.70;93.40;;;;;;5030541;28;20043;-75
2023/12/27 11:32:53;;;;;;;15.57;9.60;;;10.70;93.30;;;;;;5049650;28;20107;-72
2023/12/27 11:35:33;;;;;;;14.88;9.73;;;10.70;93.30;;;;;;5038362;28;20044;-72
2023/12/27 11:38:19;;;;;;;17.58;10.93;;;10.60;93.20;;;;;;5054111;28;20472;-73
2023/12/27 11:40:45;;;;;;;18.08;11.02;;;10.70;93.30;;;;;;5048542;28;20053;-71
2023/12/27 11:43:22;;;;;;;15.43;9.88;;;10.80;93.30;;;;;;5052636;28;20029;-72
2023/12/27 11:45:59;;;;;;;16.23;10.48;;;10.70;93.10;;;;;;5052211;28;20048;-71
2023/12/27 11:48:27;;;;;;;14.80;10.68;;;10.60;93.30;;;;;;5047820;28;20048;-75
2023/12/27 11:50:59;;;;;;;17.73;10.93;;;10.70;93.30;;;;;;5046804;28;20036;-71
2023/12/27 11:53:29;;;;;;;19.25;10.85;;;10.70;93.30;;;;;;5039451;28;20511;-73
2023/12/27 11:55:59;;;;;;;17.70;10.48;;;10.70;93.30;;;;;;5046476;28;20643;-74
2023/12/27 11:58:35;;;;;;;13.68;10.02;;;10.60;93.30;;;;;;5052408;28;20029;-74
2023/12/27 12:01:19;;;;;;;18.08;10.13;;;10.60;93.20;;;;;;5047680;28;20045;-74
2023/12/27 12:04:10;;;;;;;16.25;10.57;;;10.60;93.20;;;;;;5052142;28;20029;-73
2023/12/27 12:06:54;;;;;;;15.40;10.25;;;10.60;93.30;;;;;;5021195;28;20044;-71
2023/12/27 12:09:31;;;;;;;17.27;10.48;;;10.60;93.30;;;;;;5047266;28;20185;-70
2023/12/27 12:11:57;;;;;;;18.33;11.40;;;10.60;93.30;;;;;;5052069;28;20078;-71
2023/12/27 12:14:23;;;;;;;17.38;10.20;;;10.60;93.30;;;;;;5052178;28;20025;-72
2023/12/27 12:16:50;;;;;;;17.95;11.02;;;10.50;93.40;;;;;;5045079;28;20580;-72
2023/12/27 12:19:17;;;;;;;16.10;10.07;;;10.60;93.40;;;;;;5047574;28;20099;-71
2023/12/27 12:21:45;;;;;;;20.70;10.38;;;10.60;93.40;;;;;;5045317;28;20776;-75
2023/12/27 12:24:10;;;;;;;18.02;9.95;;;10.50;93.30;;;;;;5049014;28;20029;-76
2023/12/27 12:26:36;;;;;;;14.90;9.88;;;10.60;93.40;;;;;;5049299;28;20033;-73
2023/12/27 12:29:03;;;;;;;17.40;9.68;;;10.50;93.40;;;;;;5048289;28;20025;-77
2023/12/27 12:31:31;;;;;;;17.40;10.20;;;10.50;93.40;;;;;;5045600;28;20136;-75
2023/12/27 12:33:58;;;;;;;14.25;9.27;;;10.60;93.40;;;;;;5046227;28;20033;-72